createdAt,value
2022-09-26T00:00:07.407Z,13.23
2022-09-26T00:03:14.971Z,13.24
2022-09-26T00:06:19.537Z,13.25
2022-09-26T00:09:24.263Z,13.24
2022-09-26T00:12:27.092Z,13.11
2022-09-26T00:15:29.668Z,13.16
2022-09-26T00:18:33.069Z,13.11
2022-09-26T00:21:36.514Z,13.00
2022-09-26T00:24:39.367Z,13.09
2022-09-26T00:27:41.891Z,13.07
2022-09-26T00:30:45.414Z,13.05
2022-09-26T00:33:48.245Z,13.02
2022-09-26T00:36:51.121Z,13.01
2022-09-26T00:39:53.682Z,13.07
2022-09-26T00:42:57.416Z,13.09
2022-09-26T00:46:02.987Z,13.10
2022-09-26T00:49:20.959Z,13.11
2022-09-26T00:52:49.297Z,13.14
2022-09-26T00:55:57.623Z,13.18
2022-09-26T00:59:08.899Z,13.24
2022-09-26T01:02:12.675Z,13.30
2022-09-26T01:05:18.846Z,13.26
2022-09-26T01:08:27.540Z,13.41
2022-09-26T01:11:31.605Z,13.50
2022-09-26T01:14:37.508Z,13.54
2022-09-26T01:17:43.126Z,13.60
2022-09-26T01:21:05.999Z,13.64
2022-09-26T01:24:47.287Z,13.65
2022-09-26T01:28:03.534Z,13.71
2022-09-26T01:31:37.090Z,13.71
2022-09-26T01:34:58.154Z,13.77
2022-09-26T01:38:23.873Z,13.74
2022-09-26T01:41:48.449Z,13.71
2022-09-26T01:45:14.586Z,13.71
2022-09-26T01:48:35.214Z,13.75
2022-09-26T01:52:09.833Z,13.76
2022-09-26T01:55:18.515Z,13.78
2022-09-26T01:58:30.921Z,13.80
2022-09-26T02:01:39.612Z,13.79
2022-09-26T02:04:45.719Z,13.79
2022-09-26T02:08:26.548Z,13.82
2022-09-26T02:11:30.083Z,13.73
2022-09-26T02:14:36.494Z,13.82
2022-09-26T02:17:47.486Z,13.73
2022-09-26T02:20:57.963Z,13.70
2022-09-26T02:24:02.056Z,13.66
2022-09-26T02:27:06.901Z,13.73
2022-09-26T02:30:10.095Z,13.71
2022-09-26T02:33:13.493Z,13.62
2022-09-26T02:36:18.600Z,13.68
2022-09-26T02:39:21.760Z,13.60
2022-09-26T02:42:54.114Z,13.68
2022-09-26T02:46:14.985Z,13.65
2022-09-26T02:49:52.220Z,13.62
2022-09-26T02:53:28.725Z,13.64
2022-09-26T02:57:04.109Z,13.62
2022-09-26T03:00:17.094Z,13.59
2022-09-26T03:03:44.821Z,13.58
2022-09-26T03:06:53.407Z,13.57
2022-09-26T03:09:57.585Z,13.57
2022-09-26T03:13:15.985Z,13.58
2022-09-26T03:16:21.199Z,13.57
2022-09-26T03:19:32.148Z,13.55
2022-09-26T03:22:34.981Z,13.57
2022-09-26T03:25:38.293Z,13.54
2022-09-26T03:28:42.062Z,13.54
2022-09-26T03:31:45.263Z,13.52
2022-09-26T03:34:48.728Z,13.49
2022-09-26T03:37:52.797Z,13.45
2022-09-26T03:40:58.800Z,13.46
2022-09-26T03:44:04.445Z,13.36
2022-09-26T03:47:08.612Z,13.27
2022-09-26T03:50:11.914Z,13.25
2022-09-26T03:53:14.608Z,13.28
2022-09-26T03:56:19.599Z,13.30
2022-09-26T03:59:22.344Z,13.29
2022-09-26T04:02:34.644Z,13.36
2022-09-26T04:05:38.327Z,13.39
2022-09-26T04:08:42.659Z,13.42
2022-09-26T04:11:46.649Z,13.44
2022-09-26T04:14:49.308Z,13.40
2022-09-26T04:17:52.269Z,13.39
2022-09-26T04:20:59.572Z,13.36
2022-09-26T04:24:02.928Z,13.39
2022-09-26T04:27:07.323Z,13.44
2022-09-26T04:30:12.302Z,13.46
2022-09-26T04:33:15.888Z,13.48
2022-09-26T04:36:19.273Z,13.50
2022-09-26T04:39:22.342Z,13.52
2022-09-26T04:42:25.293Z,13.52
2022-09-26T04:45:27.936Z,13.51
2022-09-26T04:48:31.169Z,13.50
2022-09-26T04:51:35.958Z,13.50
2022-09-26T04:54:39.145Z,13.41
2022-09-26T04:57:41.664Z,13.50
2022-09-26T05:00:48.000Z,13.49
2022-09-26T05:03:50.984Z,13.48
2022-09-26T05:06:56.845Z,13.47
2022-09-26T05:09:59.661Z,13.54
2022-09-26T05:13:03.720Z,13.56
2022-09-26T05:16:09.013Z,13.60
2022-09-26T05:19:12.529Z,13.63
2022-09-26T05:22:15.495Z,13.74
2022-09-26T05:25:36.860Z,13.72
2022-09-26T05:28:39.388Z,13.50
2022-09-26T05:31:43.526Z,13.70
2022-09-26T05:34:48.969Z,13.69
2022-09-26T05:38:02.279Z,13.67
2022-09-26T05:41:05.788Z,13.63
2022-09-26T05:44:09.939Z,13.68
2022-09-26T05:47:13.163Z,13.67
2022-09-26T05:50:20.460Z,13.69
2022-09-26T05:53:25.071Z,13.68
2022-09-26T05:56:28.059Z,13.72
2022-09-26T05:59:32.232Z,13.77
2022-09-26T06:02:39.050Z,13.82
2022-09-26T06:05:43.043Z,13.84
2022-09-26T06:08:46.633Z,13.72
2022-09-26T06:11:49.986Z,13.74
2022-09-26T06:14:53.166Z,13.73
2022-09-26T06:18:06.438Z,13.72
2022-09-26T06:21:11.718Z,13.72
2022-09-26T06:24:14.682Z,13.72
2022-09-26T06:27:17.689Z,13.71
2022-09-26T06:30:23.519Z,13.74
2022-09-26T06:33:31.095Z,13.77
2022-09-26T06:36:39.299Z,13.78
2022-09-26T06:39:41.837Z,13.82
2022-09-26T06:42:47.105Z,13.89
2022-09-26T06:45:50.073Z,13.88
2022-09-26T06:48:53.157Z,13.99
2022-09-26T06:51:56.012Z,13.93
2022-09-26T06:54:58.990Z,14.04
2022-09-26T06:58:02.047Z,14.10
2022-09-26T07:01:06.936Z,14.09
2022-09-26T07:04:15.760Z,14.19
2022-09-26T07:07:18.866Z,14.20
2022-09-26T07:10:21.840Z,14.12
2022-09-26T07:13:25.723Z,14.12
2022-09-26T07:16:29.821Z,14.13
2022-09-26T07:19:32.877Z,14.24
2022-09-26T07:22:35.682Z,14.32
2022-09-26T07:25:39.795Z,14.38
2022-09-26T07:28:43.064Z,14.42
2022-09-26T07:31:47.278Z,14.48
2022-09-26T07:34:50.178Z,14.63
2022-09-26T07:37:53.139Z,14.78
2022-09-26T07:40:55.796Z,14.94
2022-09-26T07:47:43.025Z,15.30
2022-09-26T07:50:48.741Z,15.28
2022-09-26T07:53:52.594Z,15.63
2022-09-26T07:56:56.409Z,15.66
2022-09-26T08:00:00.172Z,15.81
2022-09-26T08:03:04.875Z,16.03
2022-09-26T08:06:09.196Z,16.22
2022-09-26T08:09:13.247Z,16.14
2022-09-26T08:12:22.292Z,16.23
2022-09-26T08:15:25.029Z,16.36
2022-09-26T08:18:30.434Z,16.38
2022-09-26T08:21:33.785Z,16.52
2022-09-26T08:24:36.775Z,16.63
2022-09-26T08:27:43.853Z,16.43
2022-09-26T08:30:46.894Z,16.57
2022-09-26T08:33:58.896Z,16.54
2022-09-26T08:37:01.996Z,16.70
2022-09-26T08:40:05.562Z,16.82
2022-09-26T08:43:26.132Z,16.77
2022-09-26T08:47:02.226Z,16.70
2022-09-26T08:50:41.412Z,16.59
2022-09-26T08:53:54.004Z,16.58
2022-09-26T08:57:01.827Z,16.59
2022-09-26T09:00:10.062Z,16.54
2022-09-26T09:03:28.891Z,16.55
2022-09-26T09:06:32.760Z,16.60
2022-09-26T09:09:36.293Z,16.67
2022-09-26T09:12:40.161Z,16.83
2022-09-26T09:16:01.766Z,16.97
2022-09-26T09:19:20.182Z,17.02
2022-09-26T09:22:47.113Z,17.04
2022-09-26T09:29:56.730Z,17.45
2022-09-26T09:33:14.812Z,17.25
2022-09-26T09:36:33.374Z,17.22
2022-09-26T09:39:42.212Z,17.26
2022-09-26T09:42:54.312Z,17.37
2022-09-26T09:46:14.186Z,17.52
2022-09-26T09:49:25.094Z,17.38
2022-09-26T09:53:06.327Z,17.53
2022-09-26T09:56:15.962Z,17.63
2022-09-26T09:59:40.330Z,17.83
2022-09-26T10:03:19.015Z,17.99
2022-09-26T10:06:45.503Z,18.04
2022-09-26T10:09:46.355Z,18.06
2022-09-26T10:13:03.048Z,18.12
2022-09-26T10:16:09.665Z,18.13
2022-09-26T10:19:14.091Z,18.31
2022-09-26T10:22:42.409Z,18.38
2022-09-26T10:25:48.535Z,18.19
2022-09-26T10:28:55.805Z,18.14
2022-09-26T10:32:00.529Z,18.17
2022-09-26T10:35:19.958Z,18.37
2022-09-26T10:38:27.458Z,18.18
2022-09-26T10:41:30.463Z,18.25
2022-09-26T10:44:36.680Z,18.17
2022-09-26T10:47:46.625Z,18.11
2022-09-26T10:50:55.686Z,18.15
2022-09-26T10:54:12.206Z,18.07
2022-09-26T10:57:23.153Z,17.88
2022-09-26T11:00:37.828Z,18.15
2022-09-26T11:03:45.939Z,18.31
2022-09-26T11:06:51.440Z,18.53
2022-09-26T11:10:01.996Z,18.47
2022-09-26T11:13:24.726Z,19.04
2022-09-26T11:16:28.478Z,19.17
2022-09-26T11:20:02.711Z,18.68
2022-09-26T11:23:40.606Z,18.72
2022-09-26T11:27:12.498Z,18.65
2022-09-26T11:30:21.083Z,18.68
2022-09-26T11:33:24.713Z,18.82
2022-09-26T11:36:54.140Z,19.01
2022-09-26T11:40:15.110Z,18.80
2022-09-26T11:43:45.719Z,18.70
2022-09-26T11:47:01.397Z,18.72
2022-09-26T11:50:35.642Z,18.62
2022-09-26T11:54:00.988Z,18.63
2022-09-26T11:57:22.532Z,18.55
2022-09-26T12:00:36.178Z,18.74
2022-09-26T12:04:12.085Z,18.76
2022-09-26T12:07:17.994Z,18.53
2022-09-26T12:10:31.278Z,18.17
2022-09-26T12:13:42.996Z,18.56
2022-09-26T12:16:55.173Z,18.67
2022-09-26T12:20:19.608Z,18.61
2022-09-26T12:23:34.279Z,18.71
2022-09-26T12:26:49.779Z,18.95
2022-09-26T12:30:14.407Z,19.02
2022-09-26T12:33:38.375Z,19.20
2022-09-26T12:37:04.776Z,19.04
2022-09-26T12:40:19.508Z,18.63
2022-09-26T12:43:31.548Z,18.28
2022-09-26T12:46:59.191Z,18.84
2022-09-26T12:50:51.338Z,18.96
2022-09-26T12:54:19.066Z,19.13
2022-09-26T12:57:55.277Z,19.45
2022-09-26T13:01:28.687Z,19.20
2022-09-26T13:05:19.392Z,19.09
2022-09-26T13:08:36.842Z,18.96
2022-09-26T13:12:25.950Z,19.07
2022-09-26T13:15:36.107Z,19.39
2022-09-26T13:18:52.297Z,19.64
2022-09-26T13:22:05.847Z,19.33
2022-09-26T13:25:15.411Z,19.09
2022-09-26T13:28:26.708Z,19.20
2022-09-26T13:31:55.978Z,19.18
2022-09-26T13:35:07.171Z,19.14
2022-09-26T13:38:41.424Z,18.99
2022-09-26T13:41:56.652Z,18.85
2022-09-26T13:45:04.179Z,18.82
2022-09-26T13:48:13.812Z,18.66
2022-09-26T13:51:40.102Z,18.66
2022-09-26T13:54:56.319Z,18.59
2022-09-26T13:58:07.120Z,18.64
2022-09-26T14:01:27.326Z,18.52
2022-09-26T14:04:36.680Z,18.59
2022-09-26T14:07:57.729Z,18.55
2022-09-26T14:11:12.087Z,18.57
2022-09-26T14:14:21.482Z,18.37
2022-09-26T14:17:44.532Z,18.43
2022-09-26T14:21:05.968Z,18.33
2022-09-26T14:24:21.027Z,18.17
2022-09-26T14:27:37.624Z,18.07
2022-09-26T14:31:14.017Z,18.24
2022-09-26T14:34:38.377Z,18.35
2022-09-26T14:37:45.188Z,18.34
2022-09-26T14:40:58.032Z,18.37
2022-09-26T14:44:16.419Z,18.34
2022-09-26T14:47:20.151Z,18.34
2022-09-26T14:50:49.528Z,18.29
2022-09-26T14:53:57.360Z,18.22
2022-09-26T14:57:06.231Z,18.20
2022-09-26T15:00:33.934Z,18.11
2022-09-26T15:03:37.983Z,18.02
2022-09-26T15:06:46.503Z,17.91
2022-09-26T15:09:57.413Z,17.92
2022-09-26T15:13:12.132Z,17.86
2022-09-26T15:16:45.896Z,17.79
2022-09-26T15:19:53.057Z,17.73
2022-09-26T15:22:57.469Z,17.62
2022-09-26T15:26:03.365Z,17.44
2022-09-26T15:29:08.029Z,17.26
2022-09-26T15:32:16.683Z,17.13
2022-09-26T15:35:19.805Z,17.10
2022-09-26T15:38:23.965Z,17.06
2022-09-26T15:41:45.525Z,16.97
2022-09-26T15:45:00.314Z,17.02
2022-09-26T15:48:06.016Z,16.97
2022-09-26T15:51:20.551Z,16.87
2022-09-26T15:54:29.618Z,16.83
2022-09-26T15:57:33.613Z,16.74
2022-09-26T16:00:41.845Z,16.63
2022-09-26T16:04:01.231Z,16.54
2022-09-26T16:07:07.046Z,16.49
2022-09-26T16:10:30.518Z,16.48
2022-09-26T16:13:38.973Z,16.44
2022-09-26T16:16:42.388Z,16.41
2022-09-26T16:19:57.573Z,16.36
2022-09-26T16:23:05.169Z,16.33
2022-09-26T16:26:24.871Z,16.28
2022-09-26T16:29:34.768Z,16.21
2022-09-26T16:32:37.489Z,16.11
2022-09-26T16:35:48.368Z,16.13
2022-09-26T16:39:02.731Z,16.17
2022-09-26T16:42:16.361Z,16.15
2022-09-26T16:45:19.168Z,16.10
2022-09-26T16:48:50.207Z,16.09
2022-09-26T16:52:28.245Z,16.08
2022-09-26T16:55:34.394Z,16.04
2022-09-26T16:58:37.112Z,15.93
2022-09-26T17:01:55.187Z,15.96
2022-09-26T17:04:57.890Z,15.93
2022-09-26T17:08:00.914Z,15.92
2022-09-26T17:11:04.743Z,15.91
2022-09-26T17:14:13.670Z,15.88
2022-09-26T17:17:21.962Z,15.79
2022-09-26T17:20:25.156Z,15.68
2022-09-26T17:23:44.556Z,15.60
2022-09-26T17:26:53.389Z,15.52
2022-09-26T17:30:00.861Z,15.50
2022-09-26T17:33:04.471Z,15.45
2022-09-26T17:36:11.015Z,15.47
2022-09-26T17:39:18.353Z,15.40
2022-09-26T17:42:22.214Z,15.34
2022-09-26T17:45:32.196Z,15.37
2022-09-26T17:48:35.729Z,15.34
2022-09-26T17:51:38.729Z,15.33
2022-09-26T17:54:42.709Z,15.32
2022-09-26T17:57:45.865Z,15.28
2022-09-26T18:00:50.432Z,15.30
2022-09-26T18:04:02.709Z,15.34
2022-09-26T18:07:05.539Z,15.33
2022-09-26T18:10:21.023Z,15.39
2022-09-26T18:13:30.516Z,15.43
2022-09-26T18:16:33.531Z,15.46
2022-09-26T18:19:38.364Z,15.49
2022-09-26T18:22:41.272Z,15.50
2022-09-26T18:25:48.205Z,15.51
2022-09-26T18:28:51.856Z,15.49
2022-09-26T18:31:55.004Z,15.44
2022-09-26T18:34:59.933Z,15.42
2022-09-26T18:38:02.622Z,15.38
2022-09-26T18:41:07.164Z,15.38
2022-09-26T18:44:16.741Z,15.37
2022-09-26T18:47:19.736Z,15.21
2022-09-26T18:50:31.061Z,15.12
2022-09-26T18:53:37.471Z,15.11
2022-09-26T18:56:59.817Z,15.12
2022-09-26T19:00:05.155Z,15.09
2022-09-26T19:03:08.467Z,14.97
2022-09-26T19:06:19.790Z,15.08
2022-09-26T19:09:22.806Z,15.06
2022-09-26T19:12:25.792Z,15.09
2022-09-26T19:15:28.967Z,15.13
2022-09-26T19:18:32.098Z,15.10
2022-09-26T19:21:44.556Z,15.06
2022-09-26T19:24:54.124Z,15.07
2022-09-26T19:27:57.239Z,15.03
2022-09-26T19:31:03.743Z,14.91
2022-09-26T19:34:06.700Z,15.01
2022-09-26T19:37:13.081Z,14.95
2022-09-26T19:40:17.824Z,14.89
2022-09-26T19:43:21.860Z,14.87
2022-09-26T19:46:27.613Z,14.82
2022-09-26T19:49:32.697Z,14.75
2022-09-26T19:52:35.745Z,14.66
2022-09-26T19:55:39.470Z,14.65
2022-09-26T19:58:42.974Z,14.61
2022-09-26T20:01:46.639Z,14.55
2022-09-26T20:04:51.262Z,14.49
2022-09-26T20:07:54.066Z,14.42
2022-09-26T20:10:57.986Z,14.31
2022-09-26T20:14:19.465Z,14.27
2022-09-26T20:17:26.929Z,14.22
2022-09-26T20:20:31.647Z,14.02
2022-09-26T20:23:35.456Z,13.98
2022-09-26T20:26:38.194Z,13.92
2022-09-26T20:30:01.321Z,13.91
2022-09-26T20:33:04.922Z,13.80
2022-09-26T20:36:11.650Z,13.75
2022-09-26T20:39:19.545Z,13.74
2022-09-26T20:42:27.993Z,13.72
2022-09-26T20:45:39.530Z,13.76
2022-09-26T20:48:47.141Z,13.76
2022-09-26T20:51:51.401Z,13.71
2022-09-26T20:54:55.530Z,13.60
2022-09-26T20:57:59.666Z,13.42
2022-09-26T21:01:02.639Z,13.36
2022-09-26T21:04:05.637Z,13.28
2022-09-26T21:07:13.506Z,13.32
2022-09-26T21:10:30.548Z,13.30
2022-09-26T21:13:33.481Z,13.27
2022-09-26T21:16:42.287Z,13.22
2022-09-26T21:19:45.699Z,13.09
2022-09-26T21:22:50.548Z,12.92
2022-09-26T21:25:53.512Z,12.82
2022-09-26T21:28:56.235Z,12.77
2022-09-26T21:32:04.407Z,12.75
2022-09-26T21:35:07.559Z,12.75
2022-09-26T21:38:10.713Z,12.63
2022-09-26T21:41:13.533Z,12.53
2022-09-26T21:44:32.308Z,12.47
2022-09-26T21:47:36.617Z,12.41
2022-09-26T21:50:44.447Z,12.39
2022-09-26T21:53:59.262Z,12.42
2022-09-26T21:57:08.241Z,12.53
2022-09-26T22:00:12.375Z,12.58
2022-09-26T22:03:16.211Z,12.55
2022-09-26T22:06:19.439Z,12.42
2022-09-26T22:09:22.676Z,12.31
2022-09-26T22:12:28.428Z,12.16
2022-09-26T22:15:31.076Z,12.14
2022-09-26T22:18:35.797Z,12.12
2022-09-26T22:21:38.536Z,12.03
2022-09-26T22:24:41.427Z,11.92
2022-09-26T22:27:44.020Z,11.87
2022-09-26T22:30:47.072Z,11.85
2022-09-26T22:33:49.745Z,11.94
2022-09-26T22:36:53.184Z,12.03
2022-09-26T22:39:55.864Z,12.00
2022-09-26T22:42:58.781Z,11.99
2022-09-26T22:46:03.245Z,11.85
2022-09-26T22:49:06.312Z,11.90
2022-09-26T22:52:09.036Z,11.90
2022-09-26T22:55:12.077Z,11.90
2022-09-26T22:58:14.723Z,11.77
2022-09-26T23:01:27.237Z,11.62
2022-09-26T23:04:47.011Z,11.56
2022-09-26T23:07:54.053Z,11.44
2022-09-26T23:10:56.753Z,11.33
2022-09-26T23:13:59.802Z,11.27
2022-09-26T23:17:03.132Z,11.33
2022-09-26T23:20:07.158Z,11.28
2022-09-26T23:23:11.632Z,11.28
2022-09-26T23:26:23.115Z,11.15
2022-09-26T23:29:26.414Z,11.19
2022-09-26T23:32:29.380Z,11.43
2022-09-26T23:35:31.961Z,11.46
2022-09-26T23:38:36.575Z,11.69
2022-09-26T23:41:39.265Z,11.65
2022-09-26T23:44:42.285Z,11.67
2022-09-26T23:47:44.933Z,11.68
2022-09-26T23:50:47.891Z,11.65
2022-09-26T23:53:50.496Z,11.62
2022-09-26T23:56:53.507Z,11.64
2022-09-26T23:59:56.119Z,11.64
